createdAt,value
2019-02-24T00:00:46.590Z,72.78
2019-02-24T00:03:16.118Z,72.89
2019-02-24T00:05:45.944Z,72.74
2019-02-24T00:08:15.710Z,73.08
2019-02-24T00:10:45.481Z,73.20
2019-02-24T00:13:15.405Z,73.27
2019-02-24T00:15:45.013Z,73.03
2019-02-24T00:18:15.191Z,72.74
2019-02-24T00:20:44.761Z,72.64
2019-02-24T00:23:14.123Z,72.68
2019-02-24T00:25:43.633Z,72.45
2019-02-24T00:28:13.005Z,72.18
2019-02-24T00:30:42.386Z,72.11
2019-02-24T00:33:11.736Z,72.04
2019-02-24T00:35:41.163Z,71.94
2019-02-24T00:38:10.621Z,71.74
2019-02-24T00:40:40.034Z,71.87
2019-02-24T00:43:09.432Z,71.58
2019-02-24T00:45:39.985Z,71.50
2019-02-24T00:48:09.353Z,71.51
2019-02-24T00:50:38.861Z,71.68
2019-02-24T00:53:08.654Z,71.75
2019-02-24T00:55:38.247Z,71.76
2019-02-24T00:58:15.942Z,71.72
2019-02-24T01:00:40.120Z,71.64
2019-02-24T01:03:09.688Z,71.65
2019-02-24T01:05:39.445Z,71.89
2019-02-24T01:08:08.948Z,71.60
2019-02-24T01:10:38.325Z,71.67
2019-02-24T01:13:07.714Z,71.49
2019-02-24T01:15:37.225Z,71.39
2019-02-24T01:18:06.658Z,71.28
2019-02-24T01:20:36.082Z,71.22
2019-02-24T01:23:05.868Z,71.21
2019-02-24T01:25:35.350Z,71.31
2019-02-24T01:28:05.176Z,71.21
2019-02-24T01:30:35.084Z,71.07
2019-02-24T01:33:04.650Z,71.23
2019-02-24T01:35:34.063Z,71.40
2019-02-24T01:38:03.457Z,71.25
2019-02-24T01:40:33.555Z,71.66
2019-02-24T01:43:02.872Z,71.53
2019-02-24T01:45:32.690Z,71.90
2019-02-24T01:48:02.180Z,71.86
2019-02-24T01:50:31.542Z,71.81
2019-02-24T01:53:01.499Z,72.07
2019-02-24T01:55:33.496Z,72.24
2019-02-24T01:58:03.244Z,72.51
2019-02-24T02:00:33.099Z,72.39
2019-02-24T02:03:02.556Z,72.21
2019-02-24T02:05:32.542Z,71.92
2019-02-24T02:08:02.660Z,72.32
2019-02-24T02:10:32.066Z,72.45
2019-02-24T02:13:01.762Z,72.58
2019-02-24T02:15:31.476Z,72.57
2019-02-24T02:18:01.304Z,72.81
2019-02-24T02:20:30.999Z,72.50
2019-02-24T02:23:00.842Z,72.75
2019-02-24T02:25:30.260Z,72.63
2019-02-24T02:28:00.122Z,72.69
2019-02-24T02:30:29.541Z,72.41
2019-02-24T02:32:59.384Z,72.65
2019-02-24T02:35:28.755Z,72.40
2019-02-24T02:37:58.214Z,72.74
2019-02-24T02:40:27.734Z,72.79
2019-02-24T02:42:57.469Z,72.67
2019-02-24T02:45:27.004Z,72.41
2019-02-24T02:47:56.387Z,72.46
2019-02-24T02:50:26.126Z,72.96
2019-02-24T02:52:55.656Z,72.48
2019-02-24T02:55:25.388Z,72.66
2019-02-24T02:57:55.234Z,72.79
2019-02-24T03:00:32.101Z,72.79
2019-02-24T03:03:01.725Z,72.64
2019-02-24T03:05:31.252Z,72.64
2019-02-24T03:08:19.027Z,72.49
2019-02-24T03:10:50.901Z,72.20
2019-02-24T03:13:20.433Z,72.17
2019-02-24T03:15:49.841Z,71.81
2019-02-24T03:18:20.247Z,71.81
2019-02-24T03:20:50.181Z,71.99
2019-02-24T03:23:20.001Z,72.25
2019-02-24T03:25:50.598Z,72.74
2019-02-24T03:28:20.340Z,72.86
2019-02-24T03:30:50.470Z,73.29
2019-02-24T03:33:20.468Z,72.78
2019-02-24T03:35:50.436Z,72.26
2019-02-24T03:38:20.390Z,71.49
2019-02-24T03:40:50.078Z,71.35
2019-02-24T03:43:20.052Z,71.33
2019-02-24T03:45:49.888Z,71.25
2019-02-24T03:48:19.257Z,71.17
2019-02-24T03:50:49.354Z,71.23
2019-02-24T03:53:18.986Z,71.02
2019-02-24T03:55:48.765Z,70.86
2019-02-24T03:58:18.541Z,71.21
2019-02-24T04:00:48.281Z,71.09
2019-02-24T04:03:18.146Z,71.30
2019-02-24T04:05:47.650Z,71.54
2019-02-24T04:08:17.102Z,71.62
2019-02-24T04:10:47.264Z,72.10
2019-02-24T04:13:17.218Z,72.10
2019-02-24T04:15:47.557Z,72.31
2019-02-24T04:18:16.984Z,72.32
2019-02-24T04:20:46.734Z,72.21
2019-02-24T04:23:16.565Z,72.24
2019-02-24T04:25:45.958Z,72.09
2019-02-24T04:28:15.712Z,71.99
2019-02-24T04:30:45.445Z,71.76
2019-02-24T04:33:14.859Z,71.65
2019-02-24T04:35:44.275Z,71.47
2019-02-24T04:38:16.028Z,71.58
2019-02-24T04:40:46.815Z,71.70
2019-02-24T04:43:16.212Z,71.92
2019-02-24T04:45:45.611Z,71.94
2019-02-24T04:48:15.200Z,71.98
2019-02-24T04:50:44.562Z,71.87
2019-02-24T04:53:14.142Z,72.00
2019-02-24T04:55:44.561Z,71.83
2019-02-24T04:58:14.620Z,71.92
2019-02-24T05:00:45.010Z,71.91
2019-02-24T05:03:15.107Z,72.10
2019-02-24T05:05:44.552Z,72.16
2019-02-24T05:08:13.925Z,72.39
2019-02-24T05:10:43.629Z,72.40
2019-02-24T05:13:13.364Z,72.68
2019-02-24T05:15:43.112Z,72.54
2019-02-24T05:18:12.766Z,72.55
2019-02-24T05:20:42.823Z,72.72
2019-02-24T05:23:12.607Z,72.69
2019-02-24T05:25:42.184Z,72.79
2019-02-24T05:28:12.347Z,72.61
2019-02-24T05:30:42.232Z,72.60
2019-02-24T05:33:11.963Z,72.78
2019-02-24T05:35:41.364Z,73.21
2019-02-24T05:38:11.015Z,73.53
2019-02-24T05:40:40.439Z,73.86
2019-02-24T05:43:10.590Z,73.75
2019-02-24T05:45:40.061Z,73.67
2019-02-24T05:48:09.711Z,74.01
2019-02-24T05:50:39.575Z,74.03
2019-02-24T05:53:08.968Z,74.19
2019-02-24T05:55:38.317Z,74.52
2019-02-24T05:58:07.737Z,74.71
2019-02-24T06:00:37.880Z,74.65
2019-02-24T06:03:07.307Z,74.84
2019-02-24T06:05:36.688Z,75.52
2019-02-24T06:08:06.378Z,75.56
2019-02-24T06:10:36.636Z,75.25
2019-02-24T06:13:06.274Z,75.42
2019-02-24T06:15:36.055Z,75.54
2019-02-24T06:18:05.898Z,75.96
2019-02-24T06:20:35.279Z,75.65
2019-02-24T06:23:04.707Z,75.42
2019-02-24T06:25:34.509Z,75.32
2019-02-24T06:28:04.082Z,75.34
2019-02-24T06:30:33.857Z,75.89
2019-02-24T06:33:03.312Z,75.61
2019-02-24T06:35:32.690Z,75.62
2019-02-24T06:38:02.534Z,75.33
2019-02-24T06:40:31.909Z,74.88
2019-02-24T06:43:01.411Z,74.64
2019-02-24T06:45:30.784Z,74.34
2019-02-24T06:48:00.736Z,73.82
2019-02-24T06:50:49.597Z,73.46
2019-02-24T06:53:19.447Z,72.24
2019-02-24T06:55:49.390Z,71.12
2019-02-24T06:58:19.620Z,69.86
2019-02-24T07:00:49.326Z,68.67
2019-02-24T07:03:18.971Z,68.61
2019-02-24T07:05:48.405Z,66.97
2019-02-24T07:08:17.744Z,66.50
2019-02-24T07:10:49.790Z,65.93
2019-02-24T07:13:21.944Z,65.50
2019-02-24T07:15:51.858Z,64.86
2019-02-24T07:18:21.555Z,62.98
2019-02-24T07:20:50.985Z,61.96
2019-02-24T07:23:20.323Z,61.05
2019-02-24T07:25:49.857Z,60.55
2019-02-24T07:28:20.881Z,59.79
2019-02-24T07:30:50.454Z,59.22
2019-02-24T07:33:23.434Z,59.27
2019-02-24T07:35:54.384Z,58.89
2019-02-24T07:38:24.230Z,59.47
2019-02-24T07:40:54.278Z,59.89
2019-02-24T07:43:23.646Z,60.55
2019-02-24T07:45:53.211Z,60.49
2019-02-24T07:48:22.606Z,60.52
2019-02-24T07:50:52.152Z,61.01
2019-02-24T07:53:22.512Z,61.06
2019-02-24T07:55:52.465Z,61.27
2019-02-24T07:58:22.006Z,61.30
2019-02-24T08:00:51.462Z,61.10
2019-02-24T08:03:20.947Z,61.15
2019-02-24T08:05:51.069Z,61.27
2019-02-24T08:08:20.569Z,60.98
2019-02-24T08:10:52.196Z,61.41
2019-02-24T08:13:21.884Z,61.16
2019-02-24T08:15:51.598Z,61.32
2019-02-24T08:18:21.193Z,61.15
2019-02-24T08:20:50.605Z,61.24
2019-02-24T08:23:20.926Z,61.48
2019-02-24T08:25:50.424Z,61.58
2019-02-24T08:28:20.007Z,61.80
2019-02-24T08:30:50.847Z,62.00
2019-02-24T08:33:20.822Z,62.30
2019-02-24T08:35:50.242Z,62.94
2019-02-24T08:38:19.670Z,63.27
2019-02-24T08:40:49.187Z,63.88
2019-02-24T08:43:19.778Z,64.43
2019-02-24T08:45:49.254Z,64.75
2019-02-24T08:48:19.340Z,65.41
2019-02-24T08:50:49.089Z,65.60
2019-02-24T08:53:18.882Z,65.91
2019-02-24T08:55:49.209Z,66.33
2019-02-24T08:58:19.250Z,66.52
2019-02-24T09:00:50.985Z,66.63
2019-02-24T09:03:20.165Z,66.82
2019-02-24T09:05:49.692Z,67.18
2019-02-24T09:08:19.398Z,67.08
2019-02-24T09:10:49.056Z,67.43
2019-02-24T09:13:19.696Z,67.84
2019-02-24T09:15:49.704Z,67.62
2019-02-24T09:18:19.237Z,67.70
2019-02-24T09:20:49.465Z,67.85
2019-02-24T09:23:19.277Z,68.19
2019-02-24T09:25:49.068Z,67.81
2019-02-24T09:28:19.054Z,68.15
2019-02-24T09:30:48.433Z,68.30
2019-02-24T09:33:18.639Z,68.24
2019-02-24T09:35:48.108Z,67.93
2019-02-24T09:38:17.620Z,68.01
2019-02-24T09:40:47.368Z,67.62
2019-02-24T09:43:17.007Z,67.63
2019-02-24T09:45:47.359Z,67.47
2019-02-24T09:48:16.780Z,67.18
2019-02-24T09:50:46.827Z,67.61
2019-02-24T09:53:16.332Z,67.07
2019-02-24T09:55:45.780Z,67.03
2019-02-24T09:58:15.246Z,67.00
2019-02-24T10:00:44.714Z,66.57
2019-02-24T10:03:14.078Z,66.53
2019-02-24T10:05:43.832Z,66.09
2019-02-24T10:08:13.235Z,66.01
2019-02-24T10:10:44.042Z,66.03
2019-02-24T10:13:13.616Z,65.84
2019-02-24T10:15:43.051Z,65.65
2019-02-24T10:18:12.664Z,65.45
2019-02-24T10:20:42.230Z,65.63
2019-02-24T10:23:11.722Z,65.59
2019-02-24T10:25:41.426Z,65.43
2019-02-24T10:28:12.050Z,65.57
2019-02-24T10:30:41.647Z,65.65
2019-02-24T10:33:11.125Z,65.88
2019-02-24T10:35:40.513Z,66.17
2019-02-24T10:38:10.083Z,65.92
2019-02-24T10:40:39.670Z,65.99
2019-02-24T10:43:09.057Z,65.59
2019-02-24T10:45:38.439Z,65.64
2019-02-24T10:48:14.093Z,65.48
2019-02-24T10:50:38.969Z,65.34
2019-02-24T10:53:08.377Z,65.14
2019-02-24T10:55:38.117Z,64.46
2019-02-24T10:58:07.841Z,63.87
2019-02-24T11:00:40.488Z,63.35
2019-02-24T11:03:09.921Z,62.80
2019-02-24T11:05:40.553Z,62.66
2019-02-24T11:08:09.922Z,62.66
2019-02-24T11:10:39.385Z,61.99
2019-02-24T11:13:08.982Z,61.44
2019-02-24T11:15:38.486Z,60.55
2019-02-24T11:18:08.720Z,60.23
2019-02-24T11:20:38.277Z,58.04
2019-02-24T11:23:07.778Z,53.00
2019-02-24T11:25:38.067Z,43.58
2019-02-24T11:28:09.264Z,40.62
2019-02-24T11:30:39.611Z,40.23
2019-02-24T11:33:09.474Z,38.75
2019-02-24T11:35:38.887Z,39.61
2019-02-24T11:38:08.320Z,41.84
2019-02-24T11:40:37.778Z,39.76
2019-02-24T11:43:07.401Z,39.23
2019-02-24T11:45:36.829Z,41.81
2019-02-24T11:48:06.257Z,43.74
2019-02-24T11:50:35.899Z,44.78
2019-02-24T11:53:05.440Z,44.75
2019-02-24T11:55:34.845Z,45.79
2019-02-24T11:58:04.699Z,45.02
2019-02-24T12:00:34.094Z,44.09
2019-02-24T12:03:03.765Z,41.51
2019-02-24T12:05:33.449Z,38.22
2019-02-24T12:08:03.030Z,34.58
2019-02-24T12:10:33.039Z,32.62
2019-02-24T12:13:03.054Z,30.64
2019-02-24T12:15:33.280Z,31.21
2019-02-24T12:18:02.732Z,30.31
2019-02-24T12:20:32.280Z,29.67
2019-02-24T12:23:04.995Z,29.38
2019-02-24T12:25:37.592Z,28.26
2019-02-24T12:28:07.159Z,28.54
2019-02-24T12:30:36.638Z,28.83
2019-02-24T12:33:06.521Z,29.33
2019-02-24T12:35:35.971Z,28.42
2019-02-24T12:38:05.495Z,28.23
2019-02-24T12:40:35.105Z,28.24
2019-02-24T12:43:04.592Z,28.76
2019-02-24T12:45:34.150Z,28.88
2019-02-24T12:48:03.847Z,28.30
2019-02-24T12:50:33.264Z,28.26
2019-02-24T12:53:02.659Z,27.83
2019-02-24T12:55:32.678Z,28.95
2019-02-24T12:58:02.426Z,29.08
2019-02-24T13:00:32.509Z,28.68
2019-02-24T13:03:02.014Z,28.65
2019-02-24T13:05:31.658Z,28.81
2019-02-24T13:08:01.100Z,33.47
2019-02-24T13:10:30.781Z,37.23
2019-02-24T13:13:02.044Z,38.78
2019-02-24T13:15:31.669Z,40.56
2019-02-24T13:18:01.883Z,41.95
2019-02-24T13:20:31.743Z,42.68
2019-02-24T13:23:01.187Z,43.62
2019-02-24T13:25:31.239Z,44.22
2019-02-24T13:28:01.077Z,44.83
2019-02-24T13:30:30.580Z,45.26
2019-02-24T13:32:59.927Z,45.33
2019-02-24T13:35:30.054Z,45.38
2019-02-24T13:37:59.821Z,45.82
2019-02-24T13:40:29.272Z,45.76
2019-02-24T13:42:58.816Z,45.86
2019-02-24T13:45:28.561Z,46.10
2019-02-24T13:47:57.947Z,46.38
2019-02-24T13:50:27.560Z,46.13
2019-02-24T13:52:57.122Z,46.55
2019-02-24T13:55:26.773Z,46.59
2019-02-24T13:57:56.207Z,46.28
2019-02-24T14:00:25.704Z,46.86
2019-02-24T14:02:55.266Z,46.73
2019-02-24T14:05:25.441Z,46.74
2019-02-24T14:07:54.894Z,46.46
2019-02-24T14:10:24.435Z,46.69
2019-02-24T14:12:54.135Z,45.94
2019-02-24T14:15:23.501Z,46.65
2019-02-24T14:17:53.443Z,46.35
2019-02-24T14:20:22.934Z,46.55
2019-02-24T14:22:52.359Z,46.41
2019-02-24T14:25:21.846Z,47.12
2019-02-24T14:27:51.508Z,46.70
2019-02-24T14:30:20.982Z,47.12
2019-02-24T14:32:50.388Z,47.40
2019-02-24T14:35:20.059Z,47.11
2019-02-24T14:37:49.453Z,47.71
2019-02-24T14:40:18.865Z,48.14
2019-02-24T14:42:48.326Z,48.44
2019-02-24T14:45:18.578Z,49.17
2019-02-24T14:47:48.036Z,48.98
2019-02-24T14:50:17.705Z,49.29
2019-02-24T14:52:47.330Z,49.69
2019-02-24T14:55:17.265Z,50.04
2019-02-24T14:57:46.664Z,50.01
2019-02-24T15:00:16.859Z,50.16
2019-02-24T15:02:46.677Z,50.45
2019-02-24T15:05:16.920Z,50.48
2019-02-24T15:07:46.462Z,50.38
2019-02-24T15:10:16.381Z,50.97
2019-02-24T15:12:45.917Z,51.43
2019-02-24T15:15:17.094Z,52.07
2019-02-24T15:17:47.097Z,52.14
2019-02-24T15:20:17.945Z,53.14
2019-02-24T15:22:47.369Z,53.67
2019-02-24T15:25:17.112Z,54.24
2019-02-24T15:27:47.346Z,54.81
2019-02-24T15:30:19.935Z,54.98
2019-02-24T15:32:51.956Z,55.23
2019-02-24T15:35:21.291Z,55.27
2019-02-24T15:37:51.662Z,55.64
2019-02-24T15:40:21.049Z,56.13
2019-02-24T15:42:50.428Z,56.19
2019-02-24T15:45:20.973Z,56.32
2019-02-24T15:47:50.532Z,56.36
2019-02-24T15:50:21.390Z,56.48
2019-02-24T15:52:52.312Z,56.83
2019-02-24T15:55:22.071Z,56.91
2019-02-24T15:57:51.518Z,57.19
2019-02-24T16:00:20.963Z,57.43
2019-02-24T16:03:01.071Z,57.59
2019-02-24T16:05:23.964Z,57.47
2019-02-24T16:07:53.317Z,57.35
2019-02-24T16:10:22.989Z,57.60
2019-02-24T16:12:52.568Z,57.59
2019-02-24T16:15:22.113Z,57.69
2019-02-24T16:17:56.032Z,57.67
2019-02-24T16:20:26.541Z,57.79
2019-02-24T16:22:56.091Z,57.98
2019-02-24T16:25:25.830Z,57.92
2019-02-24T16:27:55.530Z,58.13
2019-02-24T16:30:26.132Z,58.31
2019-02-24T16:32:55.618Z,58.37
2019-02-24T16:35:25.520Z,58.31
2019-02-24T16:37:55.198Z,58.33
2019-02-24T16:40:25.232Z,58.36
2019-02-24T16:42:55.327Z,58.40
2019-02-24T16:45:24.734Z,58.35
2019-02-24T16:47:55.529Z,58.55
2019-02-24T16:50:26.805Z,58.77
2019-02-24T16:52:57.014Z,58.66
2019-02-24T16:55:27.379Z,59.11
2019-02-24T16:57:58.914Z,59.12
2019-02-24T17:00:28.409Z,59.04
2019-02-24T17:02:58.184Z,58.90
2019-02-24T17:05:28.564Z,58.84
2019-02-24T17:07:58.435Z,58.87
2019-02-24T17:10:28.611Z,58.91
2019-02-24T17:13:01.704Z,58.93
2019-02-24T17:15:31.376Z,58.81
2019-02-24T17:18:00.957Z,58.53
2019-02-24T17:20:30.461Z,58.58
2019-02-24T17:23:00.091Z,58.66
2019-02-24T17:25:30.569Z,58.32
2019-02-24T17:28:00.412Z,58.23
2019-02-24T17:30:29.961Z,58.05
2019-02-24T17:32:59.515Z,58.04
2019-02-24T17:35:29.034Z,58.29
2019-02-24T17:37:58.410Z,58.67
2019-02-24T17:40:27.792Z,58.85
2019-02-24T17:42:57.571Z,59.13
2019-02-24T17:45:27.006Z,59.22
2019-02-24T17:47:56.410Z,59.41
2019-02-24T17:50:25.981Z,59.45
2019-02-24T17:52:55.349Z,59.48
2019-02-24T17:55:24.806Z,59.57
2019-02-24T17:57:54.396Z,59.62
2019-02-24T18:00:32.168Z,59.79
2019-02-24T18:03:02.408Z,59.83
2019-02-24T18:05:31.941Z,59.87
2019-02-24T18:08:01.638Z,60.13
2019-02-24T18:10:31.093Z,60.17
2019-02-24T18:13:00.558Z,60.30
2019-02-24T18:15:30.296Z,60.29
2019-02-24T18:17:59.752Z,60.28
2019-02-24T18:20:29.236Z,60.26
2019-02-24T18:22:59.732Z,60.10
2019-02-24T18:25:29.177Z,60.12
2019-02-24T18:27:59.266Z,60.18
2019-02-24T18:30:28.958Z,60.05
2019-02-24T18:32:58.405Z,60.38
2019-02-24T18:35:28.985Z,60.56
2019-02-24T18:37:58.725Z,60.55
2019-02-24T18:40:28.153Z,60.75
2019-02-24T18:43:00.622Z,60.81
2019-02-24T18:45:29.064Z,60.96
2019-02-24T18:47:58.498Z,61.19
2019-02-24T18:50:28.179Z,60.94
2019-02-24T18:52:57.524Z,60.55
2019-02-24T18:55:26.997Z,60.55
2019-02-24T18:57:57.057Z,60.30
2019-02-24T19:00:26.725Z,60.05
2019-02-24T19:02:56.190Z,59.87
2019-02-24T19:05:26.513Z,59.48
2019-02-24T19:07:55.963Z,59.29
2019-02-24T19:10:25.365Z,58.98
2019-02-24T19:12:55.147Z,59.11
2019-02-24T19:15:24.679Z,59.26
2019-02-24T19:17:54.055Z,58.30
2019-02-24T19:20:24.602Z,58.27
2019-02-24T19:22:54.842Z,57.91
2019-02-24T19:25:24.282Z,57.07
2019-02-24T19:27:53.707Z,55.93
2019-02-24T19:30:23.338Z,56.18
2019-02-24T19:32:52.878Z,55.62
2019-02-24T19:35:22.337Z,54.48
2019-02-24T19:37:54.458Z,54.07
2019-02-24T19:40:23.931Z,54.61
2019-02-24T19:42:54.018Z,53.56
2019-02-24T19:45:23.388Z,53.79
2019-02-24T19:47:52.759Z,52.81
2019-02-24T19:50:22.563Z,53.14
2019-02-24T19:52:52.017Z,53.35
2019-02-24T19:55:23.948Z,53.36
2019-02-24T19:57:54.201Z,53.03
2019-02-24T20:00:24.182Z,52.44
2019-02-24T20:02:53.607Z,52.42
2019-02-24T20:05:23.284Z,53.07
2019-02-24T20:07:52.803Z,53.01
2019-02-24T20:10:22.556Z,53.12
2019-02-24T20:12:52.226Z,53.27
2019-02-24T20:15:21.818Z,52.67
2019-02-24T20:17:51.786Z,52.85
2019-02-24T20:20:23.553Z,53.16
2019-02-24T20:22:53.092Z,53.08
2019-02-24T20:25:22.491Z,53.32
2019-02-24T20:27:52.390Z,53.87
2019-02-24T20:30:24.143Z,53.91
2019-02-24T20:32:56.348Z,53.59
2019-02-24T20:35:25.961Z,53.59
2019-02-24T20:37:56.478Z,53.72
2019-02-24T20:40:26.361Z,53.23
2019-02-24T20:42:55.753Z,53.20
2019-02-24T20:45:29.232Z,53.52
2019-02-24T20:47:58.782Z,53.99
2019-02-24T20:50:28.271Z,54.26
2019-02-24T20:52:57.748Z,54.09
2019-02-24T20:55:28.099Z,54.26
2019-02-24T20:57:57.554Z,54.05
2019-02-24T21:00:29.697Z,54.32
2019-02-24T21:03:02.488Z,53.84
2019-02-24T21:05:32.565Z,54.71
2019-02-24T21:08:02.495Z,54.62
2019-02-24T21:10:31.989Z,54.68
2019-02-24T21:13:01.502Z,54.73
2019-02-24T21:15:30.981Z,55.32
2019-02-24T21:18:00.388Z,54.69
2019-02-24T21:20:30.339Z,54.48
2019-02-24T21:23:00.088Z,54.68
2019-02-24T21:25:29.852Z,54.59
2019-02-24T21:27:59.223Z,54.73
2019-02-24T21:30:28.820Z,54.49
2019-02-24T21:32:58.221Z,54.32
2019-02-24T21:35:27.894Z,54.83
2019-02-24T21:37:57.338Z,54.92
2019-02-24T21:40:26.731Z,55.01
2019-02-24T21:42:56.143Z,54.71
2019-02-24T21:45:25.951Z,54.95
2019-02-24T21:47:55.310Z,55.12
2019-02-24T21:50:24.794Z,55.07
2019-02-24T21:52:54.208Z,55.10
2019-02-24T21:55:23.918Z,54.54
2019-02-24T21:57:53.353Z,54.98
2019-02-24T22:00:23.275Z,55.15
2019-02-24T22:02:53.174Z,55.11
2019-02-24T22:05:23.201Z,55.24
2019-02-24T22:07:52.575Z,54.60
2019-02-24T22:10:22.157Z,54.08
2019-02-24T22:12:51.907Z,54.32
2019-02-24T22:15:21.731Z,54.67
2019-02-24T22:17:51.442Z,54.54
2019-02-24T22:20:20.955Z,54.75
2019-02-24T22:22:50.729Z,54.98
2019-02-24T22:25:20.119Z,55.12
2019-02-24T22:27:49.920Z,54.21
2019-02-24T22:30:19.432Z,54.02
2019-02-24T22:32:48.820Z,54.74
2019-02-24T22:35:18.393Z,54.87
2019-02-24T22:37:47.844Z,53.95
2019-02-24T22:40:17.375Z,54.34
2019-02-24T22:42:47.792Z,54.69
2019-02-24T22:45:17.422Z,55.27
2019-02-24T22:47:46.805Z,54.59
2019-02-24T22:50:17.084Z,53.93
2019-02-24T22:52:46.994Z,54.78
2019-02-24T22:55:16.672Z,54.50
2019-02-24T22:57:46.065Z,54.59
2019-02-24T23:00:31.888Z,54.43
2019-02-24T23:03:01.741Z,54.90
2019-02-24T23:05:31.323Z,54.36
2019-02-24T23:08:00.808Z,54.19
2019-02-24T23:10:30.929Z,54.21
2019-02-24T23:13:02.245Z,54.40
2019-02-24T23:15:31.707Z,54.72
2019-02-24T23:18:01.599Z,54.84
2019-02-24T23:20:31.146Z,54.86
2019-02-24T23:23:00.532Z,54.18
2019-02-24T23:25:30.910Z,53.91
2019-02-24T23:28:00.272Z,54.80
2019-02-24T23:30:29.750Z,54.61
2019-02-24T23:32:59.156Z,54.80
2019-02-24T23:35:28.963Z,55.10
2019-02-24T23:37:58.697Z,55.01
2019-02-24T23:40:28.149Z,54.75
2019-02-24T23:42:57.494Z,54.94
2019-02-24T23:45:26.873Z,54.95
2019-02-24T23:47:56.649Z,55.15
2019-02-24T23:50:26.488Z,55.27
2019-02-24T23:52:55.837Z,55.06
2019-02-24T23:55:27.448Z,54.88
2019-02-24T23:57:56.860Z,54.83
